Ratliff City, Oklahoma
Current Conditions -  °F | °C
As of 3:55 AM on Sunday 21 Dec 2014 (Local Time) from KPVJ Reporting Station
Haze Haze  
Wind Chill: 42°   Ceiling: 2000
Heat Index: 42°   Visibility: 5mi
Dew Point: 41°   Wind: 0mph
Humidity: 97%   Direction: NA
Pressure: 30.09"   Gusts: NA
Location:  34.45°N, 97.51°W
Report Text: KPVJ 210955Z AUTO 00000KT 5SM BR SCT011 OVC020 06/05 A3009 RMK AO2 T00550050
Loading
Personal Weather Stations






























Interactive Weather Map New forecast layout! Learn more

10-Day Weather Forecast

Advertisements
Track Severe Weather on mobile